sensor_id;sensor_type;location;lat;lon;timestamp;P1;durP1;ratioP1;P2;durP2;ratioP2
50543;SDS011;41176;44.032;20.900;2022-11-20T08:02:17;5.75;;;2.90;;
50543;SDS011;41176;44.032;20.900;2022-11-20T08:04:50;6.55;;;2.67;;
50543;SDS011;41176;44.032;20.900;2022-11-20T08:07:19;5.38;;;2.65;;
50543;SDS011;41176;44.032;20.900;2022-11-20T08:09:57;6.50;;;2.47;;
50543;SDS011;41176;44.032;20.900;2022-11-20T08:13:28;6.57;;;2.97;;
50543;SDS011;41176;44.032;20.900;2022-11-20T08:23:10;7.50;;;2.78;;
50543;SDS011;41176;44.032;20.900;2022-11-20T08:25:51;6.75;;;3.00;;
50543;SDS011;41176;44.032;20.900;2022-11-20T08:28:56;3.40;;;1.88;;
50543;SDS011;41176;44.032;20.900;2022-11-20T08:34:43;4.85;;;2.42;;
50543;SDS011;41176;44.032;20.900;2022-11-20T08:45:56;5.10;;;1.60;;
50543;SDS011;41176;44.032;20.900;2022-11-20T10:10:47;6.32;;;3.13;;
50543;SDS011;41176;44.032;20.900;2022-11-20T11:35:03;3.55;;;2.20;;
50543;SDS011;41176;44.032;20.900;2022-11-20T11:38:06;6.32;;;3.90;;
50543;SDS011;41176;44.032;20.900;2022-11-20T11:50:47;5.93;;;3.50;;
50543;SDS011;41176;44.032;20.900;2022-11-20T12:52:34;5.15;;;3.13;;
50543;SDS011;41176;44.032;20.900;2022-11-20T13:08:41;4.07;;;2.47;;
50543;SDS011;41176;44.032;20.900;2022-11-20T13:18:28;5.07;;;2.72;;
50543;SDS011;41176;44.032;20.900;2022-11-20T17:37:24;5.93;;;3.22;;
50543;SDS011;41176;44.032;20.900;2022-11-20T17:39:58;4.83;;;3.53;;
50543;SDS011;41176;44.032;20.900;2022-11-20T17:55:35;9.88;;;5.85;;
50543;SDS011;41176;44.032;20.900;2022-11-20T19:12:32;4.93;;;1.50;;
50543;SDS011;41176;44.032;20.900;2022-11-20T19:15:20;3.50;;;1.50;;
50543;SDS011;41176;44.032;20.900;2022-11-20T19:17:46;2.55;;;1.38;;
50543;SDS011;41176;44.032;20.900;2022-11-20T19:20:25;2.13;;;1.35;;
50543;SDS011;41176;44.032;20.900;2022-11-20T19:22:54;1.35;;;0.80;;
50543;SDS011;41176;44.032;20.900;2022-11-20T19:25:29;2.22;;;1.40;;
50543;SDS011;41176;44.032;20.900;2022-11-20T19:27:56;2.22;;;1.45;;
50543;SDS011;41176;44.032;20.900;2022-11-20T19:30:21;2.35;;;1.55;;
50543;SDS011;41176;44.032;20.900;2022-11-20T19:32:47;4.68;;;1.75;;
50543;SDS011;41176;44.032;20.900;2022-11-20T19:35:13;1.77;;;1.52;;
50543;SDS011;41176;44.032;20.900;2022-11-20T19:37:39;1.73;;;1.00;;
50543;SDS011;41176;44.032;20.900;2022-11-20T19:40:05;2.53;;;1.10;;
50543;SDS011;41176;44.032;20.900;2022-11-20T19:42:31;2.33;;;1.02;;
50543;SDS011;41176;44.032;20.900;2022-11-20T19:44:57;1.55;;;1.27;;
50543;SDS011;41176;44.032;20.900;2022-11-20T19:47:24;1.60;;;1.17;;
50543;SDS011;41176;44.032;20.900;2022-11-20T19:49:50;2.00;;;1.17;;
50543;SDS011;41176;44.032;20.900;2022-11-20T19:52:16;2.47;;;0.90;;
50543;SDS011;41176;44.032;20.900;2022-11-20T19:54:42;2.25;;;1.48;;
50543;SDS011;41176;44.032;20.900;2022-11-20T19:57:08;1.08;;;0.77;;
50543;SDS011;41176;44.032;20.900;2022-11-20T19:59:34;2.10;;;0.80;;
50543;SDS011;41176;44.032;20.900;2022-11-20T20:01:59;1.67;;;1.02;;
50543;SDS011;41176;44.032;20.900;2022-11-20T20:04:27;2.55;;;1.42;;
50543;SDS011;41176;44.032;20.900;2022-11-20T20:06:53;4.13;;;2.50;;
50543;SDS011;41176;44.032;20.900;2022-11-20T20:09:21;2.88;;;1.83;;
50543;SDS011;41176;44.032;20.900;2022-11-20T20:11:48;3.53;;;2.15;;
50543;SDS011;41176;44.032;20.900;2022-11-20T20:14:15;2.50;;;1.40;;
50543;SDS011;41176;44.032;20.900;2022-11-20T20:16:42;2.65;;;1.88;;
50543;SDS011;41176;44.032;20.900;2022-11-20T20:19:13;2.67;;;1.55;;
50543;SDS011;41176;44.032;20.900;2022-11-20T20:21:39;4.43;;;3.40;;
50543;SDS011;41176;44.032;20.900;2022-11-20T20:24:09;2.92;;;1.65;;
50543;SDS011;41176;44.032;20.900;2022-11-20T20:26:35;1.23;;;0.82;;
50543;SDS011;41176;44.032;20.900;2022-11-20T20:29:02;6.47;;;2.75;;
50543;SDS011;41176;44.032;20.900;2022-11-20T20:31:30;3.67;;;2.35;;
50543;SDS011;41176;44.032;20.900;2022-11-20T20:33:58;6.90;;;2.97;;
50543;SDS011;41176;44.032;20.900;2022-11-20T20:36:30;6.15;;;2.50;;
50543;SDS011;41176;44.032;20.900;2022-11-20T20:38:57;4.03;;;2.15;;
50543;SDS011;41176;44.032;20.900;2022-11-20T20:41:24;4.70;;;2.03;;
50543;SDS011;41176;44.032;20.900;2022-11-20T20:43:51;3.67;;;2.72;;
50543;SDS011;41176;44.032;20.900;2022-11-20T20:46:35;4.20;;;2.00;;
50543;SDS011;41176;44.032;20.900;2022-11-20T20:49:01;2.65;;;1.45;;
50543;SDS011;41176;44.032;20.900;2022-11-20T20:51:32;1.25;;;0.70;;
50543;SDS011;41176;44.032;20.900;2022-11-20T20:53:58;2.83;;;2.08;;
50543;SDS011;41176;44.032;20.900;2022-11-20T20:56:26;1.45;;;1.02;;
50543;SDS011;41176;44.032;20.900;2022-11-20T20:58:52;3.28;;;1.60;;
50543;SDS011;41176;44.032;20.900;2022-11-20T21:01:18;1.90;;;1.27;;
50543;SDS011;41176;44.032;20.900;2022-11-20T21:03:47;2.05;;;1.00;;
50543;SDS011;41176;44.032;20.900;2022-11-20T21:06:13;1.42;;;1.25;;
50543;SDS011;41176;44.032;20.900;2022-11-20T21:08:39;1.92;;;1.27;;
50543;SDS011;41176;44.032;20.900;2022-11-20T21:11:06;2.05;;;1.35;;
50543;SDS011;41176;44.032;20.900;2022-11-20T21:13:35;1.77;;;1.15;;
50543;SDS011;41176;44.032;20.900;2022-11-20T21:16:02;1.25;;;0.93;;
50543;SDS011;41176;44.032;20.900;2022-11-20T21:18:28;1.55;;;1.13;;
50543;SDS011;41176;44.032;20.900;2022-11-20T21:20:55;2.17;;;1.38;;
50543;SDS011;41176;44.032;20.900;2022-11-20T21:23:45;1.50;;;1.08;;
50543;SDS011;41176;44.032;20.900;2022-11-20T21:26:16;2.17;;;1.27;;
50543;SDS011;41176;44.032;20.900;2022-11-20T21:28:42;1.52;;;1.20;;
50543;SDS011;41176;44.032;20.900;2022-11-20T21:31:09;0.93;;;0.65;;
50543;SDS011;41176;44.032;20.900;2022-11-20T21:33:38;1.52;;;0.70;;
50543;SDS011;41176;44.032;20.900;2022-11-20T21:36:09;2.15;;;1.23;;
50543;SDS011;41176;44.032;20.900;2022-11-20T21:38:36;2.50;;;1.30;;
50543;SDS011;41176;44.032;20.900;2022-11-20T21:41:03;1.25;;;0.93;;
50543;SDS011;41176;44.032;20.900;2022-11-20T21:43:31;2.78;;;1.48;;
50543;SDS011;41176;44.032;20.900;2022-11-20T21:46:05;1.95;;;0.85;;
50543;SDS011;41176;44.032;20.900;2022-11-20T21:48:33;5.10;;;1.17;;
50543;SDS011;41176;44.032;20.900;2022-11-20T21:51:03;1.83;;;1.10;;
50543;SDS011;41176;44.032;20.900;2022-11-20T21:55:59;1.85;;;0.85;;
50543;SDS011;41176;44.032;20.900;2022-11-20T21:58:25;0.75;;;0.52;;
50543;SDS011;41176;44.032;20.900;2022-11-20T22:00:51;1.25;;;0.60;;
50543;SDS011;41176;44.032;20.900;2022-11-20T22:03:17;2.42;;;1.38;;
50543;SDS011;41176;44.032;20.900;2022-11-20T22:05:51;2.05;;;1.33;;
50543;SDS011;41176;44.032;20.900;2022-11-20T22:08:21;2.53;;;1.45;;
50543;SDS011;41176;44.032;20.900;2022-11-20T22:10:57;0.57;;;0.40;;
50543;SDS011;41176;44.032;20.900;2022-11-20T22:13:30;1.17;;;0.65;;
50543;SDS011;41176;44.032;20.900;2022-11-20T22:16:14;1.45;;;0.40;;
50543;SDS011;41176;44.032;20.900;2022-11-20T22:18:41;0.85;;;0.68;;
50543;SDS011;41176;44.032;20.900;2022-11-20T22:21:10;1.00;;;0.73;;
50543;SDS011;41176;44.032;20.900;2022-11-20T22:23:40;1.08;;;0.70;;
50543;SDS011;41176;44.032;20.900;2022-11-20T22:26:14;0.32;;;0.17;;
50543;SDS011;41176;44.032;20.900;2022-11-20T22:28:42;1.60;;;0.98;;
50543;SDS011;41176;44.032;20.900;2022-11-20T22:31:12;1.80;;;0.95;;
50543;SDS011;41176;44.032;20.900;2022-11-20T22:33:38;2.22;;;1.25;;
50543;SDS011;41176;44.032;20.900;2022-11-20T22:36:08;0.68;;;0.47;;
50543;SDS011;41176;44.032;20.900;2022-11-20T22:38:35;0.35;;;0.20;;
50543;SDS011;41176;44.032;20.900;2022-11-20T22:41:06;1.85;;;0.52;;
50543;SDS011;41176;44.032;20.900;2022-11-20T22:43:33;0.25;;;0.17;;
50543;SDS011;41176;44.032;20.900;2022-11-20T22:46:04;0.13;;;0.10;;
50543;SDS011;41176;44.032;20.900;2022-11-20T22:48:33;0.88;;;0.40;;
50543;SDS011;41176;44.032;20.900;2022-11-20T22:51:01;0.40;;;0.17;;
50543;SDS011;41176;44.032;20.900;2022-11-20T22:53:36;0.10;;;0.10;;
50543;SDS011;41176;44.032;20.900;2022-11-20T22:56:07;0.55;;;0.43;;
50543;SDS011;41176;44.032;20.900;2022-11-20T22:58:35;1.75;;;0.40;;
50543;SDS011;41176;44.032;20.900;2022-11-20T23:01:14;0.20;;;0.10;;
50543;SDS011;41176;44.032;20.900;2022-11-20T23:03:45;0.60;;;0.35;;
50543;SDS011;41176;44.032;20.900;2022-11-20T23:06:13;0.50;;;0.30;;
50543;SDS011;41176;44.032;20.900;2022-11-20T23:08:43;0.35;;;0.20;;
50543;SDS011;41176;44.032;20.900;2022-11-20T23:11:14;1.23;;;0.82;;
50543;SDS011;41176;44.032;20.900;2022-11-20T23:13:42;0.52;;;0.30;;
50543;SDS011;41176;44.032;20.900;2022-11-20T23:16:09;0.38;;;0.28;;
50543;SDS011;41176;44.032;20.900;2022-11-20T23:18:42;0.40;;;0.35;;
50543;SDS011;41176;44.032;20.900;2022-11-20T23:21:14;2.05;;;0.60;;
50543;SDS011;41176;44.032;20.900;2022-11-20T23:43:51;0.63;;;0.50;;
50543;SDS011;41176;44.032;20.900;2022-11-20T23:46:18;0.43;;;0.30;;
50543;SDS011;41176;44.032;20.900;2022-11-20T23:48:44;0.40;;;0.30;;
50543;SDS011;41176;44.032;20.900;2022-11-20T23:51:13;1.25;;;0.80;;
50543;SDS011;41176;44.032;20.900;2022-11-20T23:53:39;0.30;;;0.10;;
50543;SDS011;41176;44.032;20.900;2022-11-20T23:56:05;0.30;;;0.20;;
50543;SDS011;41176;44.032;20.900;2022-11-20T23:58:40;1.48;;;0.50;;
